sensor_id;sensor_type;location;lat;lon;timestamp;pressure;altitude;pressure_sealevel;temperature;humidity
6194;BME280;3130;41.564;23.280;2023-01-29T00:01:36;99057.22;;;4.23;75.31
6194;BME280;3130;41.564;23.280;2023-01-29T00:04:04;99058.16;;;4.21;75.27
6194;BME280;3130;41.564;23.280;2023-01-29T00:06:31;99061.41;;;4.24;75.87
6194;BME280;3130;41.564;23.280;2023-01-29T00:08:58;99058.69;;;4.30;75.73
6194;BME280;3130;41.564;23.280;2023-01-29T00:11:26;99055.81;;;4.39;75.59
6194;BME280;3130;41.564;23.280;2023-01-29T00:13:53;99056.53;;;4.43;75.33
6194;BME280;3130;41.564;23.280;2023-01-29T00:16:20;99059.00;;;4.46;75.09
6194;BME280;3130;41.564;23.280;2023-01-29T00:18:47;98909.41;;;3.42;75.47
6194;BME280;3130;41.564;23.280;2023-01-29T00:21:17;99069.59;;;4.32;75.46
6194;BME280;3130;41.564;23.280;2023-01-29T00:23:46;99043.38;;;4.07;75.64
6194;BME280;3130;41.564;23.280;2023-01-29T00:26:14;99039.31;;;4.02;75.86
6194;BME280;3130;41.564;23.280;2023-01-29T00:28:41;99076.78;;;4.20;75.77
6194;BME280;3130;41.564;23.280;2023-01-29T00:31:09;99027.16;;;3.86;76.23
6194;BME280;3130;41.564;23.280;2023-01-29T00:33:37;99080.56;;;4.07;76.00
6194;BME280;3130;41.564;23.280;2023-01-29T00:36:08;99077.03;;;4.12;76.41
6194;BME280;3130;41.564;23.280;2023-01-29T00:38:37;99082.75;;;4.19;76.99
6194;BME280;3130;41.564;23.280;2023-01-29T00:41:05;99052.66;;;4.07;76.72
6194;BME280;3130;41.564;23.280;2023-01-29T00:43:50;99050.34;;;4.01;76.01
6194;BME280;3130;41.564;23.280;2023-01-29T00:46:34;99054.38;;;4.06;76.29
6194;BME280;3130;41.564;23.280;2023-01-29T00:49:02;99011.38;;;3.78;77.22
6194;BME280;3130;41.564;23.280;2023-01-29T00:51:29;99090.97;;;4.25;76.59
6194;BME280;3130;41.564;23.280;2023-01-29T00:53:58;99077.78;;;4.14;76.31
6194;BME280;3130;41.564;23.280;2023-01-29T00:56:26;99080.56;;;4.07;76.75
6194;BME280;3130;41.564;23.280;2023-01-29T00:58:53;98975.13;;;3.48;77.14
6194;BME280;3130;41.564;23.280;2023-01-29T01:01:20;99077.78;;;4.14;77.03
6194;BME280;3130;41.564;23.280;2023-01-29T01:04:09;99010.47;;;3.79;78.19
6194;BME280;3130;41.564;23.280;2023-01-29T01:06:36;99045.22;;;4.02;77.54
6194;BME280;3130;41.564;23.280;2023-01-29T01:09:05;99074.78;;;4.29;78.09
6194;BME280;3130;41.564;23.280;2023-01-29T01:11:50;99079.56;;;4.12;78.69
6194;BME280;3130;41.564;23.280;2023-01-29T01:14:17;99085.56;;;4.10;78.15
6194;BME280;3130;41.564;23.280;2023-01-29T01:16:45;99087.94;;;4.14;78.80
6194;BME280;3130;41.564;23.280;2023-01-29T01:19:13;99084.75;;;4.09;78.44
6194;BME280;3130;41.564;23.280;2023-01-29T01:21:40;99072.16;;;4.06;79.69
6194;BME280;3130;41.564;23.280;2023-01-29T01:24:11;99056.38;;;3.97;79.57
6194;BME280;3130;41.564;23.280;2023-01-29T01:26:38;99085.91;;;4.25;79.71
6194;BME280;3130;41.564;23.280;2023-01-29T01:29:05;99063.41;;;4.15;80.03
6194;BME280;3130;41.564;23.280;2023-01-29T01:31:33;99091.91;;;4.23;79.84
6194;BME280;3130;41.564;23.280;2023-01-29T01:34:00;99093.13;;;4.11;79.35
6194;BME280;3130;41.564;23.280;2023-01-29T01:36:27;99084.19;;;4.00;78.29
6194;BME280;3130;41.564;23.280;2023-01-29T01:38:56;99052.59;;;3.83;78.69
6194;BME280;3130;41.564;23.280;2023-01-29T01:41:25;99082.53;;;3.99;79.45
6194;BME280;3130;41.564;23.280;2023-01-29T01:43:54;99085.63;;;4.08;80.03
6194;BME280;3130;41.564;23.280;2023-01-29T01:46:23;99079.56;;;4.12;79.40
6194;BME280;3130;41.564;23.280;2023-01-29T01:48:53;99084.44;;;4.18;79.00
6194;BME280;3130;41.564;23.280;2023-01-29T01:51:23;99095.28;;;4.23;78.39
6194;BME280;3130;41.564;23.280;2023-01-29T01:53:56;99091.91;;;4.23;79.35
6194;BME280;3130;41.564;23.280;2023-01-29T01:56:30;99091.94;;;4.21;79.22
6194;BME280;3130;41.564;23.280;2023-01-29T01:59:05;99084.88;;;4.31;78.13
6194;BME280;3130;41.564;23.280;2023-01-29T02:01:33;99084.63;;;4.38;78.20
6194;BME280;3130;41.564;23.280;2023-01-29T02:04:03;99086.13;;;4.44;77.81
6194;BME280;3130;41.564;23.280;2023-01-29T02:06:49;99051.06;;;4.30;78.50
6194;BME280;3130;41.564;23.280;2023-01-29T02:09:38;99086.66;;;4.53;77.59
6194;BME280;3130;41.564;23.280;2023-01-29T02:12:11;98975.75;;;3.81;78.67
6194;BME280;3130;41.564;23.280;2023-01-29T02:14:39;99086.91;;;4.46;79.11
6194;BME280;3130;41.564;23.280;2023-01-29T02:17:10;99084.72;;;4.35;80.06
6194;BME280;3130;41.564;23.280;2023-01-29T02:19:44;99074.81;;;4.28;79.66
6194;BME280;3130;41.564;23.280;2023-01-29T02:22:45;99077.94;;;4.36;80.29
6194;BME280;3130;41.564;23.280;2023-01-29T02:25:34;99084.06;;;4.30;79.56
6194;BME280;3130;41.564;23.280;2023-01-29T02:28:22;99085.03;;;4.26;80.62
6194;BME280;3130;41.564;23.280;2023-01-29T02:31:00;99088.22;;;4.31;79.92
6194;BME280;3130;41.564;23.280;2023-01-29T02:33:39;99084.06;;;4.30;79.87
6194;BME280;3130;41.564;23.280;2023-01-29T02:36:15;99092.88;;;4.45;80.07
6194;BME280;3130;41.564;23.280;2023-01-29T02:38:49;99096.91;;;4.50;79.62
6194;BME280;3130;41.564;23.280;2023-01-29T02:41:26;99094.84;;;4.37;79.57
6194;BME280;3130;41.564;23.280;2023-01-29T02:44:02;99105.78;;;4.39;79.98
6194;BME280;3130;41.564;23.280;2023-01-29T02:46:35;99085.56;;;4.36;80.56
6194;BME280;3130;41.564;23.280;2023-01-29T02:49:09;99098.81;;;4.44;80.50
6194;BME280;3130;41.564;23.280;2023-01-29T02:51:48;99019.19;;;3.70;81.76
6194;BME280;3130;41.564;23.280;2023-01-29T02:54:20;99070.41;;;3.54;82.59
6194;BME280;3130;41.564;23.280;2023-01-29T02:56:54;99102.25;;;3.62;83.28
6194;BME280;3130;41.564;23.280;2023-01-29T02:59:25;99032.84;;;3.10;84.17
6194;BME280;3130;41.564;23.280;2023-01-29T03:01:57;99101.94;;;3.44;83.96
6194;BME280;3130;41.564;23.280;2023-01-29T03:04:30;99044.28;;;2.64;84.73
6194;BME280;3130;41.564;23.280;2023-01-29T03:06:59;99109.31;;;2.94;85.66
6194;BME280;3130;41.564;23.280;2023-01-29T03:09:33;99086.16;;;2.75;87.25
6194;BME280;3130;41.564;23.280;2023-01-29T03:12:04;98957.50;;;1.65;87.48
6194;BME280;3130;41.564;23.280;2023-01-29T03:14:46;99113.53;;;2.61;87.91
6194;BME280;3130;41.564;23.280;2023-01-29T03:17:37;99118.06;;;2.49;89.60
6194;BME280;3130;41.564;23.280;2023-01-29T03:20:11;99096.28;;;2.43;89.14
6194;BME280;3130;41.564;23.280;2023-01-29T03:22:43;99107.25;;;2.44;89.90
6194;BME280;3130;41.564;23.280;2023-01-29T03:25:13;99051.88;;;1.98;89.66
6194;BME280;3130;41.564;23.280;2023-01-29T03:28:00;99116.50;;;2.43;89.79
6194;BME280;3130;41.564;23.280;2023-01-29T03:30:51;99119.53;;;2.57;90.18
6194;BME280;3130;41.564;23.280;2023-01-29T03:33:42;99023.50;;;2.21;89.97
6194;BME280;3130;41.564;23.280;2023-01-29T03:36:15;99060.84;;;2.43;90.01
6194;BME280;3130;41.564;23.280;2023-01-29T03:38:44;99114.72;;;2.80;89.78
6194;BME280;3130;41.564;23.280;2023-01-29T03:41:20;99120.03;;;2.71;89.46
6194;BME280;3130;41.564;23.280;2023-01-29T03:43:54;99117.56;;;2.68;89.31
6194;BME280;3130;41.564;23.280;2023-01-29T03:46:27;99087.09;;;2.39;89.56
6194;BME280;3130;41.564;23.280;2023-01-29T03:49:00;99128.84;;;2.55;89.56
6194;BME280;3130;41.564;23.280;2023-01-29T03:51:36;99050.69;;;2.11;90.32
6194;BME280;3130;41.564;23.280;2023-01-29T03:54:11;99125.97;;;2.70;90.66
6194;BME280;3130;41.564;23.280;2023-01-29T03:56:53;99124.69;;;2.86;90.44
6194;BME280;3130;41.564;23.280;2023-01-29T03:59:31;99042.41;;;2.38;90.27
6194;BME280;3130;41.564;23.280;2023-01-29T04:02:02;99137.16;;;2.94;90.71
6194;BME280;3130;41.564;23.280;2023-01-29T04:04:33;99131.91;;;2.99;90.38
6194;BME280;3130;41.564;23.280;2023-01-29T04:07:04;99134.38;;;3.02;90.21
6194;BME280;3130;41.564;23.280;2023-01-29T04:09:37;99136.28;;;2.95;89.79
6194;BME280;3130;41.564;23.280;2023-01-29T04:12:08;99136.88;;;3.04;90.31
6194;BME280;3130;41.564;23.280;2023-01-29T04:14:36;99140.88;;;3.11;89.64
6194;BME280;3130;41.564;23.280;2023-01-29T04:17:08;99137.78;;;3.01;89.92
6194;BME280;3130;41.564;23.280;2023-01-29T04:19:38;99140.41;;;2.98;90.88
6194;BME280;3130;41.564;23.280;2023-01-29T04:22:09;99141.09;;;3.03;90.01
6194;BME280;3130;41.564;23.280;2023-01-29T04:24:39;99103.78;;;2.78;90.16
6194;BME280;3130;41.564;23.280;2023-01-29T04:27:18;99134.28;;;3.05;90.25
6194;BME280;3130;41.564;23.280;2023-01-29T04:30:00;99107.84;;;2.85;89.84
6194;BME280;3130;41.564;23.280;2023-01-29T04:32:39;99141.81;;;3.08;90.16
6194;BME280;3130;41.564;23.280;2023-01-29T04:35:21;99139.88;;;3.16;90.08
6194;BME280;3130;41.564;23.280;2023-01-29T04:38:04;99148.25;;;3.20;90.53
6194;BME280;3130;41.564;23.280;2023-01-29T04:40:39;99136.28;;;2.95;90.23
6194;BME280;3130;41.564;23.280;2023-01-29T04:43:14;99152.38;;;2.92;90.82
6194;BME280;3130;41.564;23.280;2023-01-29T04:45:52;99150.09;;;2.83;91.42
6194;BME280;3130;41.564;23.280;2023-01-29T04:48:29;99133.50;;;2.72;91.41
6194;BME280;3130;41.564;23.280;2023-01-29T04:51:04;99155.09;;;2.86;91.68
6194;BME280;3130;41.564;23.280;2023-01-29T04:53:40;99068.38;;;2.46;91.76
6194;BME280;3130;41.564;23.280;2023-01-29T04:56:16;99150.78;;;3.20;91.48
6194;BME280;3130;41.564;23.280;2023-01-29T04:58:47;99153.69;;;3.37;91.60
6194;BME280;3130;41.564;23.280;2023-01-29T05:01:18;99133.50;;;3.34;90.42
6194;BME280;3130;41.564;23.280;2023-01-29T05:03:49;99160.59;;;3.61;90.81
6194;BME280;3130;41.564;23.280;2023-01-29T05:06:19;99155.19;;;3.73;89.76
6194;BME280;3130;41.564;23.280;2023-01-29T05:08:48;99136.53;;;3.75;89.77
6194;BME280;3130;41.564;23.280;2023-01-29T05:11:17;99146.09;;;3.95;88.95
6194;BME280;3130;41.564;23.280;2023-01-29T05:13:44;99159.13;;;4.10;88.48
6194;BME280;3130;41.564;23.280;2023-01-29T05:16:16;99127.50;;;3.94;87.91
6194;BME280;3130;41.564;23.280;2023-01-29T05:18:45;99159.75;;;4.16;87.48
6194;BME280;3130;41.564;23.280;2023-01-29T05:21:14;99160.47;;;4.21;87.18
6194;BME280;3130;41.564;23.280;2023-01-29T05:23:41;99093.94;;;3.86;86.54
6194;BME280;3130;41.564;23.280;2023-01-29T05:26:18;99169.16;;;4.40;86.00
6194;BME280;3130;41.564;23.280;2023-01-29T05:29:02;99033.09;;;3.59;84.95
6194;BME280;3130;41.564;23.280;2023-01-29T05:31:29;99152.44;;;4.35;84.81
6194;BME280;3130;41.564;23.280;2023-01-29T05:33:56;99155.75;;;4.37;84.80
6194;BME280;3130;41.564;23.280;2023-01-29T05:36:25;99168.13;;;4.47;84.28
6194;BME280;3130;41.564;23.280;2023-01-29T05:38:52;99165.50;;;4.49;84.26
6194;BME280;3130;41.564;23.280;2023-01-29T05:41:19;99140.63;;;4.34;84.30
6194;BME280;3130;41.564;23.280;2023-01-29T05:43:46;99167.91;;;4.53;83.42
6194;BME280;3130;41.564;23.280;2023-01-29T05:46:13;99172.59;;;4.39;84.38
6194;BME280;3130;41.564;23.280;2023-01-29T05:48:40;99172.88;;;4.30;84.54
6194;BME280;3130;41.564;23.280;2023-01-29T05:51:08;99177.03;;;4.33;84.77
6194;BME280;3130;41.564;23.280;2023-01-29T05:53:36;99169.50;;;4.30;84.97
6194;BME280;3130;41.564;23.280;2023-01-29T05:56:04;99176.06;;;4.37;84.40
6194;BME280;3130;41.564;23.280;2023-01-29T05:58:31;99179.03;;;4.22;85.05
6194;BME280;3130;41.564;23.280;2023-01-29T06:01:08;99179.75;;;4.27;84.76
6194;BME280;3130;41.564;23.280;2023-01-29T06:03:36;99158.81;;;4.20;84.93
6194;BME280;3130;41.564;23.280;2023-01-29T06:06:03;99189.66;;;4.34;84.91
6194;BME280;3130;41.564;23.280;2023-01-29T06:08:30;99187.97;;;4.35;84.28
6194;BME280;3130;41.564;23.280;2023-01-29T06:10:58;99140.59;;;4.08;82.78
6194;BME280;3130;41.564;23.280;2023-01-29T06:13:25;99187.72;;;4.42;82.98
6194;BME280;3130;41.564;23.280;2023-01-29T06:15:53;99199.34;;;4.49;82.14
6194;BME280;3130;41.564;23.280;2023-01-29T06:18:20;99199.25;;;4.52;79.91
6194;BME280;3130;41.564;23.280;2023-01-29T06:20:47;99091.28;;;3.89;79.41
6194;BME280;3130;41.564;23.280;2023-01-29T06:23:14;99205.47;;;4.70;78.28
6194;BME280;3130;41.564;23.280;2023-01-29T06:25:41;99200.28;;;4.73;76.86
6194;BME280;3130;41.564;23.280;2023-01-29T06:28:09;99206.09;;;4.76;76.76
6194;BME280;3130;41.564;23.280;2023-01-29T06:30:37;99210.22;;;4.80;75.41
6194;BME280;3130;41.564;23.280;2023-01-29T06:33:04;99227.91;;;4.82;75.12
6194;BME280;3130;41.564;23.280;2023-01-29T06:35:31;99223.63;;;4.84;74.59
6194;BME280;3130;41.564;23.280;2023-01-29T06:37:58;99223.56;;;4.85;74.60
6194;BME280;3130;41.564;23.280;2023-01-29T06:40:25;99230.56;;;4.79;74.18
6194;BME280;3130;41.564;23.280;2023-01-29T06:42:52;99231.06;;;4.90;74.93
6194;BME280;3130;41.564;23.280;2023-01-29T06:45:21;99233.88;;;5.06;74.11
6194;BME280;3130;41.564;23.280;2023-01-29T06:47:48;99204.63;;;4.95;73.19
6194;BME280;3130;41.564;23.280;2023-01-29T06:50:16;99210.69;;;4.91;73.23
6194;BME280;3130;41.564;23.280;2023-01-29T06:52:43;99240.38;;;5.15;72.81
6194;BME280;3130;41.564;23.280;2023-01-29T06:55:10;99236.78;;;5.20;72.60
6194;BME280;3130;41.564;23.280;2023-01-29T06:57:37;99197.88;;;4.94;72.80
6194;BME280;3130;41.564;23.280;2023-01-29T07:00:05;99184.72;;;4.83;72.61
6194;BME280;3130;41.564;23.280;2023-01-29T07:02:35;99243.38;;;5.26;71.88
6194;BME280;3130;41.564;23.280;2023-01-29T07:05:03;99247.38;;;5.33;71.95
6194;BME280;3130;41.564;23.280;2023-01-29T07:07:30;99244.22;;;5.26;72.07
6194;BME280;3130;41.564;23.280;2023-01-29T07:09:57;99241.47;;;5.32;71.87
6194;BME280;3130;41.564;23.280;2023-01-29T07:12:25;99206.72;;;5.08;72.52
6194;BME280;3130;41.564;23.280;2023-01-29T07:14:52;99249.44;;;5.46;71.83
6194;BME280;3130;41.564;23.280;2023-01-29T07:17:19;99253.38;;;5.55;71.46
6194;BME280;3130;41.564;23.280;2023-01-29T07:19:48;99238.63;;;5.41;71.26
6194;BME280;3130;41.564;23.280;2023-01-29T07:22:15;99201.31;;;5.17;71.54
6194;BME280;3130;41.564;23.280;2023-01-29T07:24:42;99225.81;;;5.44;71.02
6194;BME280;3130;41.564;23.280;2023-01-29T07:27:09;99235.56;;;5.55;71.06
6194;BME280;3130;41.564;23.280;2023-01-29T07:29:37;99262.75;;;5.79;69.94
6194;BME280;3130;41.564;23.280;2023-01-29T07:32:04;99142.59;;;5.00;70.07
6194;BME280;3130;41.564;23.280;2023-01-29T07:34:32;99233.16;;;5.52;70.47
6194;BME280;3130;41.564;23.280;2023-01-29T07:37:01;99262.31;;;5.66;70.38
6194;BME280;3130;41.564;23.280;2023-01-29T07:39:28;99270.00;;;5.65;70.94
6194;BME280;3130;41.564;23.280;2023-01-29T07:41:56;99168.97;;;5.21;69.92
6194;BME280;3130;41.564;23.280;2023-01-29T07:44:23;99243.19;;;5.56;69.46
6194;BME280;3130;41.564;23.280;2023-01-29T07:46:50;99221.22;;;5.29;69.67
6194;BME280;3130;41.564;23.280;2023-01-29T07:49:17;99239.94;;;5.51;69.46
6194;BME280;3130;41.564;23.280;2023-01-29T07:51:44;99132.25;;;4.56;69.31
6194;BME280;3130;41.564;23.280;2023-01-29T07:54:12;99274.78;;;5.49;70.13
6194;BME280;3130;41.564;23.280;2023-01-29T07:56:40;99278.09;;;5.51;69.62
6194;BME280;3130;41.564;23.280;2023-01-29T07:59:07;99203.00;;;4.93;69.96
6194;BME280;3130;41.564;23.280;2023-01-29T08:01:34;99281.25;;;5.33;70.12
6194;BME280;3130;41.564;23.280;2023-01-29T08:04:01;99201.31;;;4.93;70.34
6194;BME280;3130;41.564;23.280;2023-01-29T08:06:28;99226.97;;;5.10;70.06
6194;BME280;3130;41.564;23.280;2023-01-29T08:08:55;99096.69;;;4.32;70.68
6194;BME280;3130;41.564;23.280;2023-01-29T08:11:25;99080.31;;;4.14;69.86
6194;BME280;3130;41.564;23.280;2023-01-29T08:13:53;99291.59;;;5.29;70.30
6194;BME280;3130;41.564;23.280;2023-01-29T08:16:21;99294.22;;;5.26;70.45
6194;BME280;3130;41.564;23.280;2023-01-29T08:18:48;99178.84;;;4.55;70.10
6194;BME280;3130;41.564;23.280;2023-01-29T08:21:15;99277.47;;;5.20;71.25
6194;BME280;3130;41.564;23.280;2023-01-29T08:23:43;99174.47;;;4.60;70.15
6194;BME280;3130;41.564;23.280;2023-01-29T08:26:10;99156.06;;;4.54;70.22
6194;BME280;3130;41.564;23.280;2023-01-29T08:28:38;99295.06;;;5.51;70.27
6194;BME280;3130;41.564;23.280;2023-01-29T08:31:12;99269.50;;;5.31;70.20
6194;BME280;3130;41.564;23.280;2023-01-29T08:33:39;99304.50;;;5.47;70.16
6194;BME280;3130;41.564;23.280;2023-01-29T08:36:07;99254.22;;;5.06;69.74
6194;BME280;3130;41.564;23.280;2023-01-29T08:38:38;99293.53;;;5.45;70.42
6194;BME280;3130;41.564;23.280;2023-01-29T08:41:06;99198.22;;;5.09;69.78
6194;BME280;3130;41.564;23.280;2023-01-29T08:43:33;99267.03;;;5.77;69.33
6194;BME280;3130;41.564;23.280;2023-01-29T08:46:04;99059.06;;;4.18;68.36
6194;BME280;3130;41.564;23.280;2023-01-29T08:48:31;99243.19;;;5.56;68.25
6194;BME280;3130;41.564;23.280;2023-01-29T08:51:03;99318.13;;;6.18;67.96
6194;BME280;3130;41.564;23.280;2023-01-29T08:53:31;99308.53;;;6.26;67.63
6194;BME280;3130;41.564;23.280;2023-01-29T08:55:58;99314.78;;;6.40;66.65
6194;BME280;3130;41.564;23.280;2023-01-29T08:58:25;99311.00;;;6.50;66.70
6194;BME280;3130;41.564;23.280;2023-01-29T09:00:52;99268.47;;;6.08;65.90
6194;BME280;3130;41.564;23.280;2023-01-29T09:03:21;99317.88;;;6.25;66.30
6194;BME280;3130;41.564;23.280;2023-01-29T09:05:48;99318.88;;;6.21;66.32
6194;BME280;3130;41.564;23.280;2023-01-29T09:08:15;99307.34;;;6.11;66.24
6194;BME280;3130;41.564;23.280;2023-01-29T09:10:43;99314.31;;;6.29;66.14
6194;BME280;3130;41.564;23.280;2023-01-29T09:13:10;99288.22;;;6.01;65.89
6194;BME280;3130;41.564;23.280;2023-01-29T09:15:37;99316.72;;;6.11;67.25
6194;BME280;3130;41.564;23.280;2023-01-29T09:18:04;99320.91;;;6.35;66.52
6194;BME280;3130;41.564;23.280;2023-01-29T09:20:33;99315.31;;;6.25;66.19
6194;BME280;3130;41.564;23.280;2023-01-29T09:23:04;99278.75;;;6.05;65.31
6194;BME280;3130;41.564;23.280;2023-01-29T09:25:31;99307.03;;;6.20;64.96
6194;BME280;3130;41.564;23.280;2023-01-29T09:27:58;99308.56;;;6.24;65.77
6194;BME280;3130;41.564;23.280;2023-01-29T09:30:25;99304.94;;;6.53;65.68
6194;BME280;3130;41.564;23.280;2023-01-29T09:32:52;99302.19;;;6.59;64.70
6194;BME280;3130;41.564;23.280;2023-01-29T09:35:20;99298.13;;;6.76;64.33
6194;BME280;3130;41.564;23.280;2023-01-29T09:37:49;99300.56;;;6.99;62.50
6194;BME280;3130;41.564;23.280;2023-01-29T09:40:23;99295.44;;;7.20;61.27
6194;BME280;3130;41.564;23.280;2023-01-29T09:42:54;99301.28;;;7.44;60.96
6194;BME280;3130;41.564;23.280;2023-01-29T09:45:26;99292.47;;;7.51;60.74
6194;BME280;3130;41.564;23.280;2023-01-29T09:47:56;99244.31;;;7.43;60.33
6194;BME280;3130;41.564;23.280;2023-01-29T09:50:28;99154.50;;;6.77;59.56
6194;BME280;3130;41.564;23.280;2023-01-29T09:53:01;99294.84;;;7.55;59.92
6194;BME280;3130;41.564;23.280;2023-01-29T09:55:32;99287.00;;;7.60;60.08
6194;BME280;3130;41.564;23.280;2023-01-29T09:58:10;99299.81;;;7.78;59.27
6194;BME280;3130;41.564;23.280;2023-01-29T10:00:44;99256.06;;;7.67;59.30
6194;BME280;3130;41.564;23.280;2023-01-29T10:03:22;99280.09;;;7.82;59.19
6194;BME280;3130;41.564;23.280;2023-01-29T10:06:03;99282.69;;;7.80;58.26
6194;BME280;3130;41.564;23.280;2023-01-29T10:08:53;99247.44;;;7.50;59.44
6194;BME280;3130;41.564;23.280;2023-01-29T10:11:33;99075.25;;;6.63;59.28
6194;BME280;3130;41.564;23.280;2023-01-29T10:14:12;99276.91;;;7.77;59.03
6194;BME280;3130;41.564;23.280;2023-01-29T10:16:51;99277.28;;;7.48;59.64
6194;BME280;3130;41.564;23.280;2023-01-29T10:22:41;99277.28;;;7.48;59.99
6194;BME280;3130;41.564;23.280;2023-01-29T10:25:14;99270.47;;;7.48;58.33
6194;BME280;3130;41.564;23.280;2023-01-29T10:27:47;99232.13;;;7.30;58.67
6194;BME280;3130;41.564;23.280;2023-01-29T10:30:28;99260.94;;;7.72;58.24
6194;BME280;3130;41.564;23.280;2023-01-29T10:33:01;99262.44;;;7.96;57.80
6194;BME280;3130;41.564;23.280;2023-01-29T10:35:31;99255.56;;;7.97;56.43
6194;BME280;3130;41.564;23.280;2023-01-29T10:38:17;99241.41;;;7.91;57.07
6194;BME280;3130;41.564;23.280;2023-01-29T10:40:57;99228.50;;;8.12;56.89
6194;BME280;3130;41.564;23.280;2023-01-29T10:43:32;99110.44;;;7.70;55.74
6194;BME280;3130;41.564;23.280;2023-01-29T10:46:11;99241.41;;;8.46;54.82
6194;BME280;3130;41.564;23.280;2023-01-29T10:48:53;99221.19;;;8.04;55.31
6194;BME280;3130;41.564;23.280;2023-01-29T10:51:39;99234.94;;;8.20;56.39
6194;BME280;3130;41.564;23.280;2023-01-29T10:54:24;99049.75;;;7.21;55.19
6194;BME280;3130;41.564;23.280;2023-01-29T10:57:08;99106.94;;;7.73;54.51
6194;BME280;3130;41.564;23.280;2023-01-29T10:59:56;99233.06;;;8.61;54.38
6194;BME280;3130;41.564;23.280;2023-01-29T11:02:30;99211.16;;;8.55;54.00
6194;BME280;3130;41.564;23.280;2023-01-29T11:04:59;99207.81;;;8.89;53.83
6194;BME280;3130;41.564;23.280;2023-01-29T11:07:26;99187.59;;;8.84;52.79
6194;BME280;3130;41.564;23.280;2023-01-29T11:10:02;99200.66;;;8.78;53.23
6194;BME280;3130;41.564;23.280;2023-01-29T11:12:32;99223.53;;;8.81;53.98
6194;BME280;3130;41.564;23.280;2023-01-29T11:15:13;99206.94;;;8.90;53.53
6194;BME280;3130;41.564;23.280;2023-01-29T11:18:00;99198.78;;;8.82;52.15
6194;BME280;3130;41.564;23.280;2023-01-29T11:20:28;99142.91;;;8.57;52.81
6194;BME280;3130;41.564;23.280;2023-01-29T11:22:56;99069.34;;;7.93;52.42
6194;BME280;3130;41.564;23.280;2023-01-29T11:25:24;99060.34;;;7.86;53.49
6194;BME280;3130;41.564;23.280;2023-01-29T11:27:56;99208.41;;;8.60;53.58
6194;BME280;3130;41.564;23.280;2023-01-29T11:30:26;99071.91;;;7.93;53.37
6194;BME280;3130;41.564;23.280;2023-01-29T11:33:06;99187.22;;;8.92;52.83
6194;BME280;3130;41.564;23.280;2023-01-29T11:35:36;99148.72;;;8.61;53.41
6194;BME280;3130;41.564;23.280;2023-01-29T11:38:14;99182.53;;;8.66;53.90
6194;BME280;3130;41.564;23.280;2023-01-29T11:40:44;99146.50;;;8.70;53.66
6194;BME280;3130;41.564;23.280;2023-01-29T11:43:18;99189.47;;;8.98;53.92
6194;BME280;3130;41.564;23.280;2023-01-29T11:45:47;99186.09;;;9.14;53.56
6194;BME280;3130;41.564;23.280;2023-01-29T11:48:17;99182.84;;;9.27;53.44
6194;BME280;3130;41.564;23.280;2023-01-29T11:50:50;99170.66;;;9.15;52.89
6194;BME280;3130;41.564;23.280;2023-01-29T11:53:32;99127.56;;;8.91;52.77
6194;BME280;3130;41.564;23.280;2023-01-29T11:56:04;99136.22;;;9.05;52.39
6194;BME280;3130;41.564;23.280;2023-01-29T11:58:35;99126.34;;;9.15;52.27
6194;BME280;3130;41.564;23.280;2023-01-29T12:01:03;99169.66;;;9.35;52.04
6194;BME280;3130;41.564;23.280;2023-01-29T12:03:35;99092.78;;;8.55;52.56
6194;BME280;3130;41.564;23.280;2023-01-29T12:06:05;99152.69;;;8.83;52.92
6194;BME280;3130;41.564;23.280;2023-01-29T12:08:36;99165.25;;;8.88;53.73
6194;BME280;3130;41.564;23.280;2023-01-29T12:11:08;99019.25;;;7.74;54.43
6194;BME280;3130;41.564;23.280;2023-01-29T12:13:37;99139.59;;;8.55;54.43
6194;BME280;3130;41.564;23.280;2023-01-29T12:16:15;99104.19;;;8.12;55.17
6194;BME280;3130;41.564;23.280;2023-01-29T12:18:49;99059.03;;;8.13;55.62
6194;BME280;3130;41.564;23.280;2023-01-29T12:21:23;99128.06;;;8.11;57.44
6194;BME280;3130;41.564;23.280;2023-01-29T12:23:56;99123.69;;;7.97;57.69
6194;BME280;3130;41.564;23.280;2023-01-29T12:26:30;99022.53;;;7.59;56.41
6194;BME280;3130;41.564;23.280;2023-01-29T12:29:12;99123.19;;;8.07;56.71
6194;BME280;3130;41.564;23.280;2023-01-29T12:31:45;99123.72;;;8.32;56.55
6194;BME280;3130;41.564;23.280;2023-01-29T12:34:21;99168.56;;;8.37;55.98
6194;BME280;3130;41.564;23.280;2023-01-29T12:36:54;99153.25;;;8.00;56.96
6194;BME280;3130;41.564;23.280;2023-01-29T12:39:22;99170.06;;;8.06;57.63
6194;BME280;3130;41.564;23.280;2023-01-29T12:41:52;99139.63;;;7.83;57.89
6194;BME280;3130;41.564;23.280;2023-01-29T12:44:27;99165.34;;;8.15;56.39
6194;BME280;3130;41.564;23.280;2023-01-29T12:47:00;99162.31;;;8.07;56.28
6194;BME280;3130;41.564;23.280;2023-01-29T12:49:32;99134.34;;;8.04;56.59
6194;BME280;3130;41.564;23.280;2023-01-29T12:52:06;99086.56;;;7.90;56.22
6194;BME280;3130;41.564;23.280;2023-01-29T12:54:36;99126.66;;;8.41;56.18
6194;BME280;3130;41.564;23.280;2023-01-29T12:57:13;99008.78;;;7.80;54.83
6194;BME280;3130;41.564;23.280;2023-01-29T12:59:48;99112.53;;;8.34;52.98
6194;BME280;3130;41.564;23.280;2023-01-29T13:02:28;99151.28;;;8.61;53.56
6194;BME280;3130;41.564;23.280;2023-01-29T13:05:00;99155.97;;;8.16;55.83
6194;BME280;3130;41.564;23.280;2023-01-29T13:07:31;99151.22;;;8.44;55.20
6194;BME280;3130;41.564;23.280;2023-01-29T13:10:04;99157.44;;;8.57;54.71
6194;BME280;3130;41.564;23.280;2023-01-29T13:12:34;99152.91;;;8.62;54.22
6194;BME280;3130;41.564;23.280;2023-01-29T13:15:11;99151.28;;;8.61;53.05
6194;BME280;3130;41.564;23.280;2023-01-29T13:17:46;99108.91;;;8.38;53.01
6194;BME280;3130;41.564;23.280;2023-01-29T13:20:18;99151.28;;;8.61;52.78
6194;BME280;3130;41.564;23.280;2023-01-29T13:22:50;99151.03;;;8.48;53.42
6194;BME280;3130;41.564;23.280;2023-01-29T13:25:19;98816.16;;;6.65;54.05
6194;BME280;3130;41.564;23.280;2023-01-29T13:27:46;99153.75;;;8.79;53.48
6194;BME280;3130;41.564;23.280;2023-01-29T13:30:30;99099.22;;;8.45;53.72
6194;BME280;3130;41.564;23.280;2023-01-29T13:33:04;98835.09;;;6.41;53.92
6194;BME280;3130;41.564;23.280;2023-01-29T13:35:36;99123.91;;;8.09;55.39
6194;BME280;3130;41.564;23.280;2023-01-29T13:38:14;99098.06;;;7.98;54.19
6194;BME280;3130;41.564;23.280;2023-01-29T13:40:50;99019.72;;;7.46;55.43
6194;BME280;3130;41.564;23.280;2023-01-29T13:43:22;99057.63;;;7.72;55.48
6194;BME280;3130;41.564;23.280;2023-01-29T13:46:05;99003.13;;;7.19;54.93
6194;BME280;3130;41.564;23.280;2023-01-29T13:48:40;99150.28;;;8.28;55.56
6194;BME280;3130;41.564;23.280;2023-01-29T13:51:10;98996.06;;;7.43;54.97